Time;durP1;ratioP1;P1;durP2;ratioP2;P2;SDS_P1;SDS_P2;PMS_P1;PMS_P2;Temp;Humidity;BMP_temperature;BMP_pressure;BME280_temperature;BME280_humidity;BME280_pressure;Samples;Min_cycle;Max_cycle;Signal;HPM_P1;HPM_P2
2022/06/23 00:00:28;;;;;;;3.27;2.00;;;;;;;15.91;56.86;99701.49;123516;1099;104264;-76
2022/06/23 00:03:08;;;;;;;3.50;2.40;;;;;;;15.93;57.36;99715.62;123550;1099;104326;-76
2022/06/23 00:05:41;;;;;;;3.23;2.50;;;;;;;15.94;57.49;99707.69;123662;1099;104264;-77
2022/06/23 00:08:16;;;;;;;3.40;2.40;;;;;;;15.94;57.29;99709.44;123554;1099;104350;-76
2022/06/23 00:10:56;;;;;;;3.63;2.40;;;;;;;15.95;57.66;99714.73;123653;1099;104267;-76
2022/06/23 00:13:36;;;;;;;2.77;2.00;;;;;;;15.97;57.36;99710.34;123601;1099;104188;-76
2022/06/23 00:16:18;;;;;;;2.80;2.15;;;;;;;15.99;57.12;99713.86;123702;1098;104415;-76
2022/06/23 00:18:50;;;;;;;4.13;2.60;;;;;;;16.02;57.96;99720.03;123772;1099;104398;-77
2022/06/23 00:21:26;;;;;;;2.80;2.40;;;;;;;16.02;58.11;99717.38;123604;1099;105383;-77
2022/06/23 00:24:01;;;;;;;3.87;2.50;;;;;;;16.01;58.33;99724.45;123721;1098;104281;-76
2022/06/23 00:26:34;;;;;;;3.93;2.50;;;;;;;16.01;57.86;99723.58;123561;1099;104365;-77
2022/06/23 00:29:11;;;;;;;6.87;2.50;;;;;;;15.99;57.50;99716.51;123545;1099;104335;-76
2022/06/23 00:31:54;;;;;;;4.00;2.50;;;;;;;16.00;57.59;99712.09;123638;1099;104268;-77
2022/06/23 00:34:28;;;;;;;2.77;2.50;;;;;;;15.99;57.72;99715.64;123742;1099;104235;-76
2022/06/23 00:37:05;;;;;;;3.47;2.67;;;;;;;15.97;58.17;99698.86;123594;1099;104230;-76
2022/06/23 00:39:43;;;;;;;3.03;2.20;;;;;;;15.96;57.99;99695.34;123625;1099;104290;-76
2022/06/23 00:42:23;;;;;;;4.65;2.60;;;;;;;15.96;58.26;99700.62;123594;1099;104689;-76
2022/06/23 00:45:00;;;;;;;3.63;2.50;;;;;;;15.96;58.65;99697.11;123692;1099;104181;-76
2022/06/23 00:47:37;;;;;;;4.53;2.70;;;;;;;15.96;59.21;99699.76;123577;1099;104309;-76
2022/06/23 00:50:28;;;;;;;4.60;2.60;;;;;;;15.96;58.72;99697.11;123694;1099;104278;-76
2022/06/23 00:53:05;;;;;;;3.83;2.50;;;;;;;15.95;58.67;99696.20;123634;1099;118956;-76
2022/06/23 00:55:47;;;;;;;2.87;2.43;;;;;;;15.95;58.88;99705.92;123613;1099;104229;-76
2022/06/23 00:58:29;;;;;;;4.03;2.37;;;;;;;15.93;58.85;99708.56;123667;1099;104261;-76
2022/06/23 01:01:13;;;;;;;3.93;2.63;;;;;;;15.91;58.90;99715.62;123582;1099;104345;-76
2022/06/23 01:03:52;;;;;;;6.87;2.77;;;;;;;15.91;59.25;99722.66;123768;1099;104262;-76
2022/06/23 01:06:31;;;;;;;3.00;2.30;;;;;;;15.89;58.80;99716.49;123652;1099;104304;-76
2022/06/23 01:09:06;;;;;;;2.80;2.50;;;;;;;15.87;59.82;99720.91;123657;1099;104863;-76
2022/06/23 01:11:43;;;;;;;7.20;2.53;;;;;;;15.85;59.15;99730.58;123608;1099;104290;-76
2022/06/23 01:14:22;;;;;;;4.37;2.67;;;;;;;15.84;59.04;99729.71;123677;1099;104316;-76
2022/06/23 01:17:02;;;;;;;3.93;2.17;;;;;;;15.84;59.07;99731.48;123705;1099;104271;-76
2022/06/23 01:20:02;;;;;;;3.00;2.63;;;;;;;15.83;59.70;99727.06;123721;1099;104303;-76
2022/06/23 01:22:53;;;;;;;3.13;2.50;;;;;;;15.83;59.99;99732.35;123472;1099;104341;-76
2022/06/23 01:25:41;;;;;;;2.60;2.40;;;;;;;15.80;60.24;99735.89;123684;1099;104281;-76
2022/06/23 01:28:17;;;;;;;3.43;2.37;;;;;;;15.79;59.79;99748.22;123647;1099;104248;-77
2022/06/23 01:30:54;;;;;;;4.57;2.70;;;;;;;15.77;59.40;99746.47;123542;1098;104305;-77
2022/06/23 01:33:32;;;;;;;3.50;2.80;;;;;;;15.75;60.62;99751.72;123639;1099;104324;-76
2022/06/23 01:36:11;;;;;;;4.80;2.63;;;;;;;15.72;59.99;99754.36;123551;1097;104313;-76
2022/06/23 01:38:54;;;;;;;3.57;2.50;;;;;;;15.69;59.53;99758.73;123559;1099;104377;-77
2022/06/23 01:41:31;;;;;;;4.37;2.60;;;;;;;15.65;60.09;99752.56;123637;1099;104274;-76
2022/06/23 01:44:12;;;;;;;3.17;2.53;;;;;;;15.61;59.63;99751.68;123626;1099;104264;-76
2022/06/23 01:46:48;;;;;;;5.10;2.53;;;;;;;15.58;60.61;99761.34;123625;1099;104283;-76
2022/06/23 01:49:26;;;;;;;3.73;2.50;;;;;;;15.54;60.19;99755.17;123652;1099;104312;-76
2022/06/23 01:52:03;;;;;;;4.33;2.80;;;;;;;15.50;60.31;99756.02;123532;1099;104261;-76
2022/06/23 01:54:35;;;;;;;5.37;2.70;;;;;;;15.46;61.13;99757.78;123584;1099;110532;-76
2022/06/23 01:57:11;;;;;;;4.43;3.10;;;;;;;15.45;60.91;99753.36;123578;1099;104269;-76
2022/06/23 01:59:55;;;;;;;5.03;2.60;;;;;;;15.43;60.71;99755.13;123618;1099;104285;-76
2022/06/23 02:02:52;;;;;;;4.00;2.50;;;;;;;15.42;60.33;99755.98;123539;1099;104722;-77
2022/06/23 02:05:37;;;;;;;3.37;2.80;;;;;;;15.42;60.95;99750.70;123676;1099;104351;-76
2022/06/23 02:08:27;;;;;;;5.30;2.70;;;;;;;15.44;60.58;99753.35;123716;1099;104348;-76
2022/06/23 02:11:06;;;;;;;3.73;2.60;;;;;;;15.43;61.34;99757.77;123617;1098;104323;-76
2022/06/23 02:13:47;;;;;;;5.00;2.70;;;;;;;15.44;60.44;99753.35;123643;1099;104313;-76
2022/06/23 02:16:27;;;;;;;3.85;2.50;;;;;;;15.43;61.26;99749.84;123537;1099;104358;-76
2022/06/23 02:19:16;;;;;;;6.65;2.80;;;;;;;15.44;61.38;99748.06;123683;1098;104303;-76
2022/06/23 02:21:53;;;;;;;6.23;2.80;;;;;;;15.44;61.29;99756.91;123646;1099;104281;-76
2022/06/23 02:24:31;;;;;;;6.20;3.00;;;;;;;15.45;61.04;99742.78;123631;1098;104233;-76
2022/06/23 02:27:10;;;;;;;3.57;2.70;;;;;;;15.45;61.78;99732.21;123562;1099;104264;-76
2022/06/23 02:29:51;;;;;;;5.07;2.60;;;;;;;15.48;60.85;99733.13;123533;1099;104261;-76
2022/06/23 02:32:31;;;;;;;3.30;2.87;;;;;;;15.48;61.40;99739.28;123611;1099;104265;-76
2022/06/23 02:35:13;;;;;;;3.85;2.80;;;;;;;15.50;61.72;99736.64;123591;1099;104259;-76
2022/06/23 02:38:00;;;;;;;3.10;2.80;;;;;;;15.51;61.19;99741.06;123680;1099;104639;-77
2022/06/23 02:40:38;;;;;;;3.90;2.60;;;;;;;15.52;60.82;99741.06;123659;1099;104293;-76
2022/06/23 02:43:20;;;;;;;4.13;2.60;;;;;;;15.55;61.91;99748.11;123523;1099;104342;-76
2022/06/23 02:46:26;;;;;;;3.70;2.57;;;;;;;15.57;61.07;99738.44;123639;1099;104281;-76
2022/06/23 02:49:22;;;;;;;5.70;2.90;;;;;;;15.59;61.13;99744.61;123611;1099;104300;-76
2022/06/23 02:52:34;;;;;;;3.77;2.60;;;;;;;15.58;61.90;99742.83;123562;1099;104647;-76
2022/06/23 02:55:23;;;;;;;4.93;3.00;;;;;;;15.58;61.89;99740.19;123584;1099;104344;-76
2022/06/23 02:58:03;;;;;;;4.63;3.03;;;;;;;15.57;61.42;99734.02;123577;1099;104325;-75
2022/06/23 03:00:42;;;;;;;3.57;2.83;;;;;;;15.59;61.22;99736.67;123622;1098;104345;-76
2022/06/23 03:03:20;;;;;;;2.93;2.63;;;;;;;15.59;61.23;99741.97;123644;1099;104325;-75
2022/06/23 03:05:57;;;;;;;6.83;2.80;;;;;;;15.62;61.69;99740.20;123586;1099;104296;-76
2022/06/23 03:08:39;;;;;;;5.40;2.73;;;;;;;15.63;61.65;99735.81;123629;1099;104301;-76
2022/06/23 03:11:51;;;;;;;5.13;2.80;;;;;;;15.66;61.40;99732.28;123637;1099;104377;-75
2022/06/23 03:14:20;;;;;;;4.77;2.93;;;;;;;15.71;62.28;99744.64;123655;1099;104406;-76
2022/06/23 03:16:55;;;;;;;5.67;2.80;;;;;;;15.73;62.14;99742.87;123621;1099;104310;-77
2022/06/23 03:19:34;;;;;;;4.35;3.00;;;;;;;15.76;61.76;99739.37;123713;1099;104245;-76
2022/06/23 03:22:11;;;;;;;5.13;3.27;;;;;;;15.80;62.03;99736.77;123614;1099;104306;-77
2022/06/23 03:24:48;;;;;;;6.13;3.10;;;;;;;15.83;61.88;99738.52;123600;1099;104341;-75
2022/06/23 03:27:26;;;;;;;4.13;2.97;;;;;;;15.87;62.33;99742.07;123606;1099;104267;-77
2022/06/23 03:30:02;;;;;;;4.70;3.00;;;;;;;15.90;61.43;99739.44;123605;1099;104313;-77
2022/06/23 03:32:41;;;;;;;5.30;3.27;;;;;;;15.93;62.48;99750.89;123645;1099;104258;-76
2022/06/23 03:35:21;;;;;;;4.70;3.23;;;;;;;15.97;61.89;99752.67;123582;1099;104265;-76
2022/06/23 03:38:04;;;;;;;4.77;3.00;;;;;;;16.04;61.49;99747.39;123493;1099;104405;-76
2022/06/23 03:43:44;;;;;;;5.67;3.03;;;;;;;16.13;61.48;99744.77;123832;1098;104319;-78
2022/06/23 03:46:25;;;;;;;5.10;3.20;;;;;;;16.17;61.61;99752.70;123578;1099;104693;-75
2022/06/23 03:49:02;;;;;;;4.57;3.10;;;;;;;16.21;61.53;99747.42;123650;1099;104337;-76
2022/06/23 03:51:39;;;;;;;3.90;2.93;;;;;;;16.25;62.46;99741.22;123322;1099;104504;-76
2022/06/23 03:54:15;;;;;;;6.50;3.07;;;;;;;16.30;62.25;99758.88;123593;1099;104252;-76
2022/06/23 03:56:49;;;;;;;3.63;2.90;;;;;;;16.37;61.84;99737.70;123625;1099;104238;-76
2022/06/23 03:59:24;;;;;;;4.67;2.93;;;;;;;16.48;61.63;99750.04;123630;1099;104322;-76
2022/06/23 04:01:58;;;;;;;3.63;3.00;;;;;;;16.56;62.08;99735.92;123661;1099;104370;-77
2022/06/23 04:04:47;;;;;;;6.67;3.07;;;;;;;16.65;61.94;99738.56;123585;1099;104414;-75
2022/06/23 04:07:45;;;;;;;8.60;2.93;;;;;;;16.73;61.79;99743.86;123580;1099;104227;-76
2022/06/23 04:10:24;;;;;;;7.97;3.10;;;;;;;16.80;61.73;99745.62;123602;1099;104233;-76
2022/06/23 04:13:02;;;;;;;7.50;3.05;;;;;;;16.86;61.25;99737.66;123661;1099;105309;-76
2022/06/23 04:15:38;;;;;;;4.23;2.93;;;;;;;16.94;61.41;99733.25;123694;1099;104275;-77
2022/06/23 04:18:15;;;;;;;8.03;3.03;;;;;;;17.03;60.98;99738.53;123782;1099;104319;-77
2022/06/23 04:20:54;;;;;;;4.03;2.97;;;;;;;17.12;60.83;99740.25;124023;1099;104261;-76
2022/06/23 04:23:32;;;;;;;4.27;2.90;;;;;;;17.17;61.00;99748.19;123808;1099;104217;-77
2022/06/23 04:26:08;;;;;;;10.30;3.30;;;;;;;17.23;60.63;99734.91;123978;1099;104268;-77
2022/06/23 04:28:46;;;;;;;7.55;3.45;;;;;;;17.32;61.17;99741.96;123866;1098;104306;-77
2022/06/23 04:31:22;;;;;;;4.33;2.90;;;;;;;17.36;60.41;99751.68;124099;1099;104651;-77
2022/06/23 04:33:56;;;;;;;4.27;3.00;;;;;;;17.36;60.61;99751.68;123968;1099;104330;-77
2022/06/23 04:36:29;;;;;;;6.45;3.17;;;;;;;17.42;60.47;99751.63;124085;1099;104214;-77
2022/06/23 04:39:08;;;;;;;4.75;3.17;;;;;;;17.48;60.88;99748.95;123876;1099;104236;-77
2022/06/23 04:41:46;;;;;;;6.63;3.40;;;;;;;17.55;60.37;99769.26;123864;1099;104275;-76
2022/06/23 04:44:22;;;;;;;5.63;3.20;;;;;;;17.58;59.99;99758.63;123894;1099;104696;-76
2022/06/23 04:46:58;;;;;;;6.97;3.20;;;;;;;17.64;60.25;99770.09;124364;1099;104236;-76
2022/06/23 04:49:36;;;;;;;6.20;3.30;;;;;;;17.68;60.02;99778.03;123805;1099;104257;-76
2022/06/23 04:52:20;;;;;;;7.90;3.60;;;;;;;17.72;60.21;99785.10;124079;1099;104643;-76
2022/06/23 04:55:05;;;;;;;;;;;;;;;17.74;60.08;99795.70;124258;1099;104216;-75
2022/06/23 04:57:45;;;;;;;6.63;3.40;;;;;;;17.74;60.18;99793.05;124453;1099;104053;-76
2022/06/23 05:00:27;;;;;;;9.13;3.40;;;;;;;17.74;59.93;99815.16;124823;1099;104242;-77
2022/06/23 05:03:04;;;;;;;11.57;3.30;;;;;;;17.77;59.70;99815.14;124648;1097;104210;-77
2022/06/23 05:05:37;;;;;;;6.17;3.10;;;;;;;17.82;59.65;99820.42;125138;1099;104200;-76
2022/06/23 05:08:19;;;;;;;6.77;3.10;;;;;;;17.88;59.44;99817.77;125227;1099;104185;-76
2022/06/23 05:11:01;;;;;;;6.63;3.43;;;;;;;17.94;59.47;99812.44;125079;1099;104396;-77
2022/06/23 05:13:40;;;;;;;5.27;3.63;;;;;;;18.06;58.77;99810.59;125536;1099;104294;-76
2022/06/23 05:16:19;;;;;;;5.23;3.30;;;;;;;18.11;58.46;99820.30;125398;1099;104200;-75
2022/06/23 05:18:55;;;;;;;8.87;3.50;;;;;;;18.21;58.65;99815.81;125438;1099;104197;-76
2022/06/23 05:21:37;;;;;;;6.43;3.40;;;;;;;18.27;58.38;99821.08;125409;1098;104271;-75
2022/06/23 05:24:15;;;;;;;6.83;3.60;;;;;;;18.38;58.53;99821.02;125553;1098;104358;-75
2022/06/23 05:26:55;;;;;;;6.33;3.33;;;;;;;18.55;58.34;99833.30;124608;1098;104678;-76
2022/06/23 05:29:33;;;;;;;10.20;3.60;;;;;;;18.63;58.27;99819.05;124570;1099;109531;-76
2022/06/23 05:32:15;;;;;;;8.60;3.43;;;;;;;18.77;58.34;99826.03;124687;1099;104297;-75
2022/06/23 05:34:52;;;;;;;9.00;3.70;;;;;;;18.89;57.52;99809.14;124567;1099;104347;-74
2022/06/23 05:37:29;;;;;;;7.73;3.40;;;;;;;18.92;57.64;99817.09;124529;1099;104252;-75
2022/06/23 05:40:25;;;;;;;4.50;3.30;;;;;;;18.95;57.01;99819.72;124807;1099;104300;-74
2022/06/23 05:43:01;;;;;;;6.78;3.10;;;;;;;18.98;56.88;99819.66;124966;1099;104249;-76
2022/06/23 05:45:38;;;;;;;7.23;3.40;;;;;;;19.10;57.04;99829.30;124814;1099;104211;-76
2022/06/23 05:48:25;;;;;;;6.77;3.47;;;;;;;19.16;56.75;99837.22;124769;1098;104221;-75
2022/06/23 05:51:01;;;;;;;7.30;3.23;;;;;;;19.18;56.21;99824.78;124287;1099;104387;-76
2022/06/23 05:53:43;;;;;;;7.97;3.30;;;;;;;19.18;56.16;99838.08;124625;1098;104149;-75
2022/06/23 05:56:37;;;;;;;8.60;3.60;;;;;;;19.11;56.18;99836.39;124300;1099;104159;-78
2022/06/23 05:59:13;;;;;;;;;;;;;;;19.03;56.19;99834.67;124985;1099;104216;-76
2022/06/23 06:01:52;;;;;;;7.53;3.90;;;;;;;19.03;56.22;99831.15;124886;1099;104918;-75
2022/06/23 06:04:30;;;;;;;7.43;3.80;;;;;;;19.10;56.46;99837.28;124681;1099;104242;-75
2022/06/23 06:07:06;;;;;;;6.75;3.20;;;;;;;19.10;56.08;99831.96;124827;1099;104278;-75
2022/06/23 06:09:44;;;;;;;7.30;3.40;;;;;;;19.09;56.30;99822.21;124950;1099;104274;-76
2022/06/23 06:12:22;;;;;;;7.77;3.33;;;;;;;19.15;55.80;99827.47;124801;1099;102286;-77
2022/06/23 06:15:06;;;;;;;9.37;3.63;;;;;;;19.22;55.79;99826.52;125046;1099;104264;-76
2022/06/23 06:17:42;;;;;;;10.17;3.50;;;;;;;19.29;55.80;99835.30;124938;1099;104665;-75
2022/06/23 06:20:17;;;;;;;3.80;2.80;;;;;;;19.31;55.79;99838.86;125228;1099;102647;-76
2022/06/23 06:23:03;;;;;;;3.70;3.00;;;;;;;19.35;55.17;99822.84;124835;1099;104244;-76
2022/06/23 06:25:36;;;;;;;4.00;2.90;;;;;;;19.46;55.26;99816.50;124989;1099;104171;-75
2022/06/23 06:28:17;;;;;;;7.37;3.20;;;;;;;19.61;55.12;99815.45;124849;1099;102982;-75
2022/06/23 06:31:06;;;;;;;5.37;3.07;;;;;;;19.76;54.82;99823.25;124878;1099;107045;-78
2022/06/23 06:33:57;;;;;;;8.90;3.53;;;;;;;19.87;54.80;99812.50;124815;1099;104673;-77
2022/06/23 06:36:36;;;;;;;4.63;2.90;;;;;;;20.04;54.58;99805.14;124964;1099;104235;-76
2022/06/23 06:39:13;;;;;;;4.50;2.93;;;;;;;20.21;53.70;99806.66;126849;1098;102016;-77
2022/06/23 06:41:51;;;;;;;4.93;3.07;;;;;;;20.31;54.01;99802.97;124869;1098;104296;-76
2022/06/23 06:44:25;;;;;;;6.07;3.17;;;;;;;20.35;54.75;99803.80;125105;1099;102523;-78
2022/06/23 06:47:01;;;;;;;6.50;3.40;;;;;;;20.32;53.58;99810.08;124831;1099;104188;-77
2022/06/23 06:49:35;;;;;;;6.00;3.40;;;;;;;20.22;53.26;99819.96;124955;1099;104185;-78
2022/06/23 06:52:09;;;;;;;4.50;3.23;;;;;;;20.20;53.71;99821.78;124854;1099;104216;-77
2022/06/23 06:54:47;;;;;;;5.10;3.20;;;;;;;20.24;54.08;99828.84;126526;1099;102575;-77
2022/06/23 06:57:36;;;;;;;5.87;3.00;;;;;;;20.29;53.33;99810.98;126282;1098;104213;-76
2022/06/23 07:00:19;;;;;;;9.33;2.90;;;;;;;20.29;53.93;99826.10;124714;1099;104233;-77
2022/06/23 07:02:59;;;;;;;7.10;3.00;;;;;;;20.15;53.79;99807.66;124932;1099;104195;-78
2022/06/23 07:05:45;;;;;;;4.23;2.73;;;;;;;20.03;53.58;99808.70;126858;1099;102129;-77
2022/06/23 07:08:27;;;;;;;4.07;2.70;;;;;;;19.97;53.77;99819.44;125519;1098;103043;-78
2022/06/23 07:11:07;;;;;;;6.73;3.30;;;;;;;20.00;53.93;99819.39;124758;1099;104322;-76
2022/06/23 07:13:50;;;;;;;5.47;3.00;;;;;;;20.05;53.58;99822.86;127086;1098;102848;-77
2022/06/23 07:16:28;;;;;;;6.43;3.30;;;;;;;20.06;54.17;99827.30;125487;1098;104246;-78
2022/06/23 07:19:06;;;;;;;7.37;3.27;;;;;;;19.98;53.43;99825.66;125973;1099;103595;-80
2022/06/23 07:21:44;;;;;;;4.90;2.80;;;;;;;20.00;53.68;99830.05;124899;1099;118740;-78
2022/06/23 07:24:29;;;;;;;6.10;2.90;;;;;;;20.07;53.95;99836.16;126236;1097;103079;-78
2022/06/23 07:27:10;;;;;;;4.63;3.37;;;;;;;20.19;53.87;99821.80;124818;1099;102953;-76
2022/06/23 07:29:51;;;;;;;5.53;3.20;;;;;;;20.28;53.86;99819.88;126043;1099;104178;-77
2022/06/23 07:32:46;;;;;;;7.30;3.13;;;;;;;20.38;53.97;99820.64;126003;1099;103031;-77
2022/06/23 07:35:33;;;;;;;10.30;3.43;;;;;;;20.48;53.49;99816.91;125796;1099;104078;-78
2022/06/23 07:38:18;;;;;;;5.90;3.00;;;;;;;20.55;53.20;99820.34;125918;1099;102404;-78
2022/06/23 07:41:00;;;;;;;4.17;2.77;;;;;;;20.64;53.14;99816.66;125419;1099;104258;-76
2022/06/23 07:43:48;;;;;;;4.40;2.83;;;;;;;20.69;52.24;99820.16;125953;1099;103964;-77
2022/06/23 07:46:27;;;;;;;5.57;2.80;;;;;;;20.67;51.88;99824.64;125027;1098;103378;-78
2022/06/23 07:49:05;;;;;;;5.07;2.90;;;;;;;20.66;53.05;99825.53;125741;1099;104287;-76
2022/06/23 07:51:52;;;;;;;;;;;;;;;;;;;;;
2022/06/23 07:54:36;;;;;;;4.83;3.00;;;;;;;20.58;52.20;99832.75;124936;1099;104622;-76
2022/06/23 07:57:15;;;;;;;5.40;2.60;;;;;;;20.54;52.96;99815.94;125059;1099;103180;-77
2022/06/23 08:00:06;;;;;;;7.03;3.00;;;;;;;20.53;53.02;99842.61;124887;1099;105062;-76
2022/06/23 08:03:12;;;;;;;5.13;2.70;;;;;;;20.59;52.31;99834.52;125977;1098;119269;-77
2022/06/23 08:05:54;;;;;;;5.80;2.40;;;;;;;20.70;52.08;99818.39;124843;1099;104239;-77
2022/06/23 08:08:31;;;;;;;3.13;2.50;;;;;;;20.85;51.22;99825.23;124914;1099;104259;-76
2022/06/23 08:14:02;;;;;;;8.00;2.60;;;;;;;21.18;51.78;99813.09;124996;1099;103949;-76
2022/06/23 08:16:50;;;;;;;3.10;2.10;;;;;;;21.43;51.24;99812.63;124414;1099;104427;-76
2022/06/23 08:19:41;;;;;;;3.17;2.60;;;;;;;21.77;51.17;99810.16;124703;1099;104112;-78
2022/06/23 08:22:19;;;;;;;4.93;2.50;;;;;;;21.95;51.02;99811.53;124520;1099;104184;-76
2022/06/23 08:24:58;;;;;;;5.43;2.60;;;;;;;22.10;50.49;99806.79;124819;1099;103532;-76
2022/06/23 08:27:30;;;;;;;4.57;2.63;;;;;;;22.22;50.40;99812.72;124877;1099;104051;-78
2022/06/23 08:30:13;;;;;;;6.77;2.80;;;;;;;22.22;49.90;99818.06;124667;1099;104226;-78
2022/06/23 08:32:51;;;;;;;4.03;2.83;;;;;;;22.11;50.70;99816.54;125903;1098;103176;-79
2022/06/23 08:35:33;;;;;;;7.90;3.10;;;;;;;21.98;49.95;99829.30;124808;1099;104172;-75
2022/06/23 08:38:12;;;;;;;4.43;2.60;;;;;;;21.85;50.09;99834.03;124801;1099;105107;-76
2022/06/23 08:41:02;;;;;;;4.27;2.90;;;;;;;21.81;50.35;99833.20;124657;1098;104268;-76
2022/06/23 08:43:41;;;;;;;8.50;3.03;;;;;;;21.74;50.60;99839.60;124816;1099;104262;-79
2022/06/23 08:46:21;;;;;;;5.97;3.10;;;;;;;21.77;50.42;99833.30;124307;1099;104906;-77
2022/06/23 08:49:16;;;;;;;9.57;3.00;;;;;;;21.75;50.25;99845.81;124276;1099;104271;-77
2022/06/23 08:52:00;;;;;;;5.43;3.10;;;;;;;21.77;49.97;99841.30;124390;1099;104225;-77
2022/06/23 08:54:37;;;;;;;3.97;3.10;;;;;;;21.76;49.59;99853.78;124484;1099;104153;-78
2022/06/23 08:57:19;;;;;;;7.13;3.40;;;;;;;21.65;50.71;99845.12;124310;1099;104274;-76
2022/06/23 09:00:02;;;;;;;6.17;3.50;;;;;;;21.53;50.00;99848.91;124399;1099;104169;-79
2022/06/23 09:02:44;;;;;;;7.43;3.30;;;;;;;21.39;50.29;99833.13;124296;1099;104243;-78
2022/06/23 09:05:25;;;;;;;12.23;3.60;;;;;;;21.38;50.51;99847.41;124358;1099;104179;-79
2022/06/23 09:08:12;;;;;;;8.73;3.23;;;;;;;21.42;50.18;99842.88;124399;1102;104379;-77
2022/06/23 09:10:56;;;;;;;6.63;3.83;;;;;;;21.60;50.22;99865.67;124410;1099;105054;-79
2022/06/23 09:13:47;;;;;;;10.50;3.10;;;;;;;21.72;49.83;99852.08;124562;1102;104178;-76
2022/06/23 09:16:42;;;;;;;10.67;3.50;;;;;;;21.86;50.01;99860.70;125491;1100;102453;-79
2022/06/23 09:19:58;;;;;;;7.17;3.10;;;;;;;21.90;49.58;99842.81;124418;1099;104305;-77
2022/06/23 09:22:49;;;;;;;6.90;3.47;;;;;;;21.89;49.44;99855.30;124310;1102;104275;-74
2022/06/23 09:25:37;;;;;;;6.17;2.87;;;;;;;21.88;49.23;99840.18;124485;1102;104271;-78
2022/06/23 09:28:28;;;;;;;7.57;3.20;;;;;;;21.94;49.09;99839.18;124464;1102;104232;-76
2022/06/23 09:31:15;;;;;;;8.07;2.90;;;;;;;22.06;48.17;99846.93;124614;1103;104051;-77
2022/06/23 09:34:12;;;;;;;5.53;3.00;;;;;;;22.22;47.75;99841.22;124469;1102;105400;-77
2022/06/23 09:37:26;;;;;;;4.40;3.07;;;;;;;22.33;48.22;99838.33;124309;1102;104777;-75
2022/06/23 09:40:27;;;;;;;6.07;2.83;;;;;;;22.49;48.15;99836.20;126060;1102;103013;-77
2022/06/23 09:43:23;;;;;;;6.17;3.25;;;;;;;22.60;47.33;99837.68;126042;1102;102878;-80
2022/06/23 09:46:18;;;;;;;5.77;3.40;;;;;;;22.63;47.65;99846.56;126136;1102;102503;-76
2022/06/23 09:49:10;;;;;;;4.50;2.87;;;;;;;22.54;47.23;99837.83;126017;1101;102080;-77
2022/06/23 09:52:02;;;;;;;6.93;3.20;;;;;;;22.49;47.94;99833.53;125959;1102;102757;-77
2022/06/23 09:55:06;;;;;;;5.63;3.30;;;;;;;22.49;47.12;99836.20;124780;1102;104267;-79
2022/06/23 09:58:06;;;;;;;3.73;2.90;;;;;;;22.46;47.29;99842.48;124273;1103;104352;-77
2022/06/23 10:00:51;;;;;;;5.17;3.13;;;;;;;22.44;47.58;99834.50;124616;1100;104396;-78
2022/06/23 10:03:44;;;;;;;6.80;2.97;;;;;;;22.48;47.27;99837.98;124569;1099;104287;-77
2022/06/23 10:06:42;;;;;;;7.22;3.12;;;;;;;22.56;46.96;99837.79;125364;1099;104166;-79
2022/06/23 10:09:32;;;;;;;5.17;3.27;;;;;;;22.67;47.00;99838.40;125454;1099;104194;-77
2022/06/23 10:12:33;;;;;;;3.40;2.90;;;;;;;22.68;46.61;99828.61;124446;1099;103447;-76
2022/06/23 10:15:26;;;;;;;7.70;3.47;;;;;;;22.80;46.36;99834.52;124518;1100;103851;-76
2022/06/23 10:18:16;;;;;;;5.27;3.17;;;;;;;22.83;46.71;99833.58;124414;1102;104453;-77
2022/06/23 10:21:04;;;;;;;8.73;3.03;;;;;;;22.92;46.44;99844.04;124389;1100;102838;-76
2022/06/23 10:23:55;;;;;;;6.07;2.83;;;;;;;23.01;46.07;99834.01;126437;1098;103194;-74
2022/06/23 10:26:51;;;;;;;3.83;2.80;;;;;;;23.12;45.64;99850.69;126718;1099;102767;-77
2022/06/23 10:29:55;;;;;;;7.63;3.00;;;;;;;23.25;46.06;99845.88;126824;1099;102361;-79
2022/06/23 10:33:01;;;;;;;6.92;3.33;;;;;;;23.34;45.36;99845.62;125693;1098;103241;-77
2022/06/23 10:35:44;;;;;;;5.43;2.83;;;;;;;23.39;45.28;99853.53;124756;1099;104245;-75
2022/06/23 10:38:39;;;;;;;4.50;2.70;;;;;;;23.39;45.16;99843.72;125021;1099;102479;-77
2022/06/23 10:41:26;;;;;;;6.43;3.00;;;;;;;23.34;44.86;99845.62;125080;1099;104360;-75
2022/06/23 10:44:28;;;;;;;8.40;2.90;;;;;;;23.28;45.12;99852.05;125106;1099;104261;-76
2022/06/23 10:47:16;;;;;;;4.03;2.80;;;;;;;23.22;44.66;99851.31;124815;1099;104303;-79
2022/06/23 10:50:20;;;;;;;7.23;2.77;;;;;;;23.09;44.79;99858.79;124960;1099;104255;-76
2022/06/23 10:53:17;;;;;;;4.67;2.70;;;;;;;22.95;45.04;99849.31;125928;1099;103579;-75
2022/06/23 10:56:13;;;;;;;10.63;3.00;;;;;;;22.87;44.76;99845.93;125857;1099;103583;-78
2022/06/23 10:59:20;;;;;;;5.90;2.70;;;;;;;22.82;44.58;99847.84;125861;1099;104064;-78
2022/06/23 11:02:17;;;;;;;9.37;2.90;;;;;;;22.80;44.93;99844.34;126738;1099;102674;-78
2022/06/23 11:05:25;;;;;;;4.77;2.43;;;;;;;22.86;44.64;99845.97;117959;1099;10001157;-75
2022/06/23 11:11:52;;;;;;;6.13;3.00;;;;;;;22.90;45.01;99845.85;124115;1103;104332;-80
2022/06/23 11:14:53;;;;;;;6.73;2.80;;;;;;;22.93;44.55;99837.75;124227;1102;104277;-75
2022/06/23 11:17:38;;;;;;;5.30;3.07;;;;;;;23.02;44.35;99854.50;124301;1102;104358;-80
2022/06/23 11:20:21;;;;;;;5.23;2.87;;;;;;;23.12;44.61;99845.33;124253;1102;104498;-78
2022/06/23 11:23:13;;;;;;;6.83;2.80;;;;;;;23.30;44.75;99852.88;126166;1102;102351;-75
2022/06/23 11:26:24;;;;;;;4.57;2.63;;;;;;;23.44;43.84;99841.79;124806;1102;104850;-77
2022/06/23 11:29:25;;;;;;;5.33;2.83;;;;;;;23.65;44.68;99840.31;125313;1102;102968;-78
2022/06/23 11:32:16;;;;;;;4.03;2.53;;;;;;;23.76;44.35;99841.79;125163;1102;104310;-78
2022/06/23 11:35:09;;;;;;;8.33;2.97;;;;;;;23.77;44.06;99854.27;125000;1102;104179;-79
2022/06/23 11:38:08;;;;;;;6.63;3.00;;;;;;;23.90;44.33;99849.45;125008;1102;102953;-79
2022/06/23 11:41:05;;;;;;;6.77;3.00;;;;;;;24.01;44.12;99866.08;125220;1102;104428;-78
2022/06/23 11:43:54;;;;;;;11.23;3.20;;;;;;;24.07;43.89;99868.58;125240;1102;102501;-78
2022/06/23 11:47:06;;;;;;;10.53;3.50;;;;;;;24.29;44.02;99882.20;125503;1099;103547;-78
2022/06/23 11:50:09;;;;;;;4.90;3.30;;;;;;;24.61;43.23;99861.59;125819;1099;107903;-77
2022/06/23 11:53:09;;;;;;;8.13;3.70;;;;;;;24.81;43.47;99860.03;125951;1099;103988;-76
2022/06/23 11:59:24;;;;;;;10.50;3.90;;;;;;;25.14;42.51;99857.16;125183;1099;104066;-78
2022/06/23 12:02:05;;;;;;;9.33;3.60;;;;;;;25.25;42.32;99861.20;126044;1099;103068;-78
2022/06/23 12:05:15;;;;;;;6.40;3.60;;;;;;;25.10;41.04;99859.05;126040;1099;104263;-79
2022/06/23 12:08:22;;;;;;;6.53;3.33;;;;;;;25.03;41.87;99857.53;126135;1099;102754;-79
2022/06/23 12:10:56;;;;;;;5.33;3.20;;;;;;;25.15;41.94;99861.58;126056;1099;110820;-78
2022/06/23 12:13:41;;;;;;;8.00;3.33;;;;;;;25.25;41.66;99863.89;124880;1099;104236;-79
2022/06/23 12:16:24;;;;;;;5.27;2.90;;;;;;;25.22;41.24;99864.00;126085;1099;102888;-79
2022/06/23 12:19:07;;;;;;;4.87;3.13;;;;;;;25.26;41.08;99867.48;126143;1099;102787;-80
2022/06/23 12:22:02;;;;;;;6.43;3.50;;;;;;;25.21;41.36;99856.00;125964;1099;103730;-80
2022/06/23 12:24:50;;;;;;;10.63;3.30;;;;;;;25.26;41.07;99867.48;125085;1099;102251;-77
2022/06/23 12:27:44;;;;;;;6.40;3.35;;;;;;;25.18;40.78;99864.16;126013;1099;104356;-78
2022/06/23 12:30:20;;;;;;;8.63;3.50;;;;;;;25.17;40.95;99862.42;125340;1099;104162;-79
2022/06/23 12:33:04;;;;;;;10.90;3.00;;;;;;;25.11;40.96;99864.37;125205;1101;104274;-78
2022/06/23 12:35:47;;;;;;;7.08;3.00;;;;;;;25.12;41.17;99867.95;124500;1102;104267;-79
2022/06/23 12:38:24;;;;;;;4.63;3.00;;;;;;;25.08;40.68;99864.47;124446;1102;104259;-76
2022/06/23 12:41:13;;;;;;;7.63;2.97;;;;;;;25.15;40.73;99866.95;124333;1099;104159;-76
2022/06/23 12:43:51;;;;;;;5.43;2.67;;;;;;;25.08;40.83;99866.30;124427;1102;103055;-79
2022/06/23 12:46:45;;;;;;;4.27;3.10;;;;;;;25.06;40.84;99863.66;124488;1099;104283;-77
2022/06/23 12:49:39;;;;;;;9.28;2.92;;;;;;;25.10;40.99;99856.37;124658;1099;104185;-78